Time;durP1;ratioP1;P1;durP2;ratioP2;P2;SDS_P1;SDS_P2;PMS_P1;PMS_P2;Temp;Humidity;BMP_temperature;BMP_pressure;BME280_temperature;BME280_humidity;BME280_pressure;Samples;Min_cycle;Max_cycle;Signal;HPM_P1;HPM_P2
2021/10/14 00:01:11;;;;;;;;;10.00;10.00;;;;;21.87;39.16;102323.47;5016910;28;46271;-56
2021/10/14 00:03:36;;;;;;;;;12.50;9.00;;;;;21.86;39.22;102321.75;5016688;28;45400;-57
2021/10/14 00:06:02;;;;;;;;;9.75;9.75;;;;;21.87;39.37;102315.56;5017065;28;45397;-54
2021/10/14 00:08:27;;;;;;;;;11.25;10.00;;;;;21.87;39.30;102318.22;4999250;28;45433;-55
2021/10/14 00:10:52;;;;;;;;;11.75;8.25;;;;;21.86;39.21;102316.47;5016900;28;45433;-56
2021/10/14 00:13:18;;;;;;;;;9.75;9.00;;;;;21.86;39.24;102319.13;5016362;28;45352;-54
2021/10/14 00:15:43;;;;;;;;;9.50;9.50;;;;;21.86;39.02;102320.88;5016834;28;45959;-56
2021/10/14 00:18:09;;;;;;;;;9.50;8.75;;;;;21.86;39.28;102316.47;5016854;28;45372;-56
2021/10/14 00:20:35;;;;;;;;;7.75;7.50;;;;;21.85;39.25;102322.69;5016606;28;45666;-56
2021/10/14 00:23:00;;;;;;;;;11.50;8.00;;;;;21.83;39.31;102318.38;5016629;28;45231;-53
2021/10/14 00:25:25;;;;;;;;;9.25;7.75;;;;;21.83;39.08;102331.56;5016662;28;45389;-54
2021/10/14 00:27:51;;;;;;;;;10.25;8.25;;;;;21.83;38.98;102327.16;5017223;28;45514;-54
2021/10/14 00:30:18;;;;;;;;;8.25;8.25;;;;;21.84;39.21;102328.88;5016391;28;45251;-54
2021/10/14 00:32:43;;;;;;;;;6.50;6.00;;;;;21.82;39.28;102316.66;5016481;28;45381;-55
2021/10/14 00:35:09;;;;;;;;;11.25;10.00;;;;;21.82;38.99;102325.41;5031941;28;45225;-55
2021/10/14 00:37:34;;;;;;;;;9.25;8.50;;;;;21.83;39.14;102321.88;5016715;28;45341;-53
2021/10/14 00:40:00;;;;;;;;;8.75;8.75;;;;;21.81;39.28;102328.13;5016340;28;46301;-57
2021/10/14 00:42:25;;;;;;;;;10.50;10.00;;;;;21.81;39.11;102323.69;5016444;28;45329;-55
2021/10/14 00:44:54;;;;;;;;;10.50;10.00;;;;;21.82;39.00;102329.84;5016774;28;45790;-56
2021/10/14 00:47:22;;;;;;;;;10.50;9.00;;;;;21.81;39.28;102328.97;5016562;28;45183;-54
2021/10/14 00:49:48;;;;;;;;;11.75;10.75;;;;;21.81;39.32;102328.97;5016140;28;46416;-56
2021/10/14 00:52:13;;;;;;;;;8.00;8.00;;;;;21.79;39.28;102322.88;5016364;28;45335;-57
2021/10/14 00:54:40;;;;;;;;;8.50;7.75;;;;;21.79;39.35;102322.88;5016468;28;45217;-58
2021/10/14 00:57:05;;;;;;;;;10.75;9.00;;;;;21.78;39.32;102321.16;5016410;28;45615;-56
2021/10/14 00:59:30;;;;;;;;;11.50;10.00;;;;;21.78;39.16;102311.47;5016069;28;45797;-57
2021/10/14 01:01:57;;;;;;;;;9.25;9.00;;;;;21.79;39.15;102312.31;5016551;28;45443;-58
2021/10/14 01:04:22;;;;;;;;;13.25;9.50;;;;;21.78;39.13;102307.97;5016321;28;45373;-58
2021/10/14 01:06:48;;;;;;;;;11.00;8.75;;;;;21.75;39.33;102297.53;5016440;28;45634;-56
2021/10/14 01:09:13;;;;;;;;;11.75;9.00;;;;;21.78;39.10;102300.03;5015963;28;45426;-52
2021/10/14 01:11:39;;;;;;;;;8.00;7.50;;;;;21.78;39.38;102307.97;5015833;28;45416;-53
2021/10/14 01:14:05;;;;;;;;;10.00;7.25;;;;;21.78;39.30;102305.31;5016173;28;45238;-57
2021/10/14 01:16:30;;;;;;;;;11.50;8.25;;;;;21.76;39.32;102307.19;5016192;28;45330;-57
2021/10/14 01:18:56;;;;;;;;;11.00;10.25;;;;;21.76;39.28;102300.13;5016200;28;45417;-54
2021/10/14 01:21:21;;;;;;;;;9.00;8.25;;;;;21.77;38.90;102298.34;5015840;28;45363;-55
2021/10/14 01:23:46;;;;;;;;;9.75;9.75;;;;;21.75;39.17;102290.47;5016554;28;45372;-56
2021/10/14 01:26:12;;;;;;;;;9.25;9.00;;;;;21.75;39.33;102284.34;5019536;28;45298;-57
2021/10/14 01:28:38;;;;;;;;;9.50;8.25;;;;;21.74;39.27;102293.19;5018011;28;47804;-57
2021/10/14 01:31:03;;;;;;;;;8.00;7.25;;;;;21.75;39.21;102289.63;5019288;28;45606;-57
2021/10/14 01:33:30;;;;;;;;;9.50;8.50;;;;;21.74;39.05;102291.38;5019431;28;45290;-55
2021/10/14 01:35:57;;;;;;;;;10.75;10.25;;;;;21.74;39.05;102290.53;5019746;28;45409;-58
2021/10/14 01:38:22;;;;;;;;;7.00;6.00;;;;;21.73;39.10;102291.47;5019102;28;46680;-57
2021/10/14 01:40:47;;;;;;;;;12.50;8.50;;;;;21.73;38.97;102286.19;5018990;28;45347;-57
2021/10/14 01:43:14;;;;;;;;;7.75;7.75;;;;;21.72;39.17;102285.31;5034572;28;45403;-58
2021/10/14 01:45:40;;;;;;;;;12.25;9.50;;;;;21.73;39.27;102286.19;5019225;28;45492;-58
2021/10/14 01:48:06;;;;;;;;;9.00;8.50;;;;;21.72;39.32;102284.47;5019050;28;45199;-58
2021/10/14 01:50:31;;;;;;;;;10.25;8.50;;;;;21.71;38.92;102282.72;5018822;28;45659;-56
2021/10/14 01:52:56;;;;;;;;;9.00;8.00;;;;;21.71;39.05;102285.38;5019413;28;45326;-55
2021/10/14 01:55:22;;;;;;;;;10.25;9.00;;;;;21.70;39.07;102283.66;5001136;28;45623;-55
2021/10/14 01:57:47;;;;;;;;;9.50;8.25;;;;;21.71;39.30;102280.09;5018802;28;46339;-57
2021/10/14 02:00:13;;;;;;;;;8.00;8.00;;;;;21.72;39.28;102279.19;5018779;28;45231;-56
2021/10/14 02:02:38;;;;;;;;;7.75;7.75;;;;;21.70;39.48;102279.25;5018723;28;45314;-57
2021/10/14 02:05:04;;;;;;;;;8.00;7.25;;;;;21.69;39.00;102274.88;5019195;28;45365;-57
2021/10/14 02:07:29;;;;;;;;;10.50;9.50;;;;;21.68;39.00;102272.28;5018627;28;45387;-55
2021/10/14 02:09:55;;;;;;;;;8.25;8.25;;;;;21.69;39.59;102272.25;5018830;28;45474;-57
2021/10/14 02:12:20;;;;;;;;;11.75;9.00;;;;;21.68;39.30;102270.53;5018790;28;45416;-58
2021/10/14 02:14:46;;;;;;;;;11.00;9.00;;;;;21.67;39.34;102262.66;5018892;28;45365;-57
2021/10/14 02:17:11;;;;;;;;;7.25;6.25;;;;;21.67;39.28;102265.28;5018426;28;45416;-56
2021/10/14 02:19:36;;;;;;;;;8.00;7.00;;;;;21.68;39.46;102272.28;5018560;28;45395;-57
2021/10/14 02:22:02;;;;;;;;;10.00;10.00;;;;;21.67;39.12;102262.66;5017376;28;45343;-56
2021/10/14 02:24:28;;;;;;;;;7.00;7.00;;;;;21.67;39.26;102254.72;5019201;28;45436;-57
2021/10/14 02:26:53;;;;;;;;;10.00;9.00;;;;;21.66;39.33;102256.53;5018453;28;46186;-56
2021/10/14 02:29:18;;;;;;;;;7.75;7.75;;;;;21.68;39.32;102264.38;5018434;28;45317;-55
2021/10/14 02:31:44;;;;;;;;;9.25;9.25;;;;;21.66;39.45;102255.69;5018479;28;45397;-57
2021/10/14 02:34:09;;;;;;;;;7.50;7.50;;;;;21.64;39.14;102258.34;5018674;28;45499;-56
2021/10/14 02:36:35;;;;;;;;;9.00;8.25;;;;;21.65;39.11;102262.72;5018118;28;46395;-57
2021/10/14 02:39:01;;;;;;;;;11.00;8.75;;;;;21.65;39.47;102257.44;5018605;28;45184;-57
2021/10/14 02:41:26;;;;;;;;;11.75;7.75;;;;;21.64;39.27;102257.50;5018512;28;45521;-57
2021/10/14 02:43:51;;;;;;;;;10.25;9.25;;;;;21.64;39.13;102262.78;5018457;28;45430;-57
2021/10/14 02:46:17;;;;;;;;;9.00;8.50;;;;;21.64;39.12;102261.00;5017905;28;45413;-57
2021/10/14 02:48:42;;;;;;;;;10.00;7.75;;;;;21.64;39.17;102258.34;5018162;28;45369;-57
2021/10/14 02:51:07;;;;;;;;;8.25;8.00;;;;;21.63;39.29;102256.63;5018247;28;45266;-57
2021/10/14 02:53:33;;;;;;;;;8.00;8.00;;;;;21.62;39.41;102258.41;5018380;28;45366;-55
2021/10/14 02:55:58;;;;;;;;;12.25;9.00;;;;;21.61;39.18;102259.34;5018217;28;46272;-54
2021/10/14 02:58:23;;;;;;;;;8.75;7.00;;;;;21.62;39.37;102262.81;5018002;28;45242;-56
2021/10/14 03:00:49;;;;;;;;;8.75;8.00;;;;;21.62;39.30;102257.53;5017985;28;45483;-55
2021/10/14 03:03:14;;;;;;;;;9.75;8.75;;;;;21.60;39.54;102251.50;5000296;28;45633;-56
2021/10/14 03:05:39;;;;;;;;;9.25;9.25;;;;;21.62;39.14;102254.91;5017797;28;46324;-56
2021/10/14 03:08:05;;;;;;;;;8.25;8.00;;;;;21.61;39.29;102256.69;5017775;28;45400;-56
2021/10/14 03:10:30;;;;;;;;;15.25;10.25;;;;;21.60;39.40;102252.34;5018166;28;45317;-56
2021/10/14 03:12:56;;;;;;;;;10.00;9.00;;;;;21.60;39.55;102257.63;5018020;28;45539;-57
2021/10/14 03:15:21;;;;;;;;;10.75;9.00;;;;;21.60;39.10;102252.34;4999769;28;46177;-56
2021/10/14 03:17:46;;;;;;;;;8.75;8.50;;;;;21.60;39.36;102256.78;5017569;28;45401;-56
2021/10/14 03:20:11;;;;;;;;;9.50;8.50;;;;;21.60;39.43;102254.13;5017763;28;45447;-56
2021/10/14 03:22:37;;;;;;;;;5.00;5.00;;;;;21.60;39.17;102254.13;5017748;28;45466;-56
2021/10/14 03:25:03;;;;;;;;;9.25;9.25;;;;;21.60;39.63;102259.41;5017627;28;45400;-56
2021/10/14 03:27:28;;;;;;;;;9.25;8.25;;;;;21.58;39.24;102259.41;5017711;28;45396;-56
2021/10/14 03:29:54;;;;;;;;;9.00;8.50;;;;;21.58;39.32;102258.56;5017689;28;45396;-56
2021/10/14 03:32:19;;;;;;;;;10.00;7.75;;;;;21.57;39.29;102257.69;5017559;28;45441;-56
2021/10/14 03:34:44;;;;;;;;;9.00;7.50;;;;;21.58;39.25;102264.69;5017232;28;47170;-56
2021/10/14 03:37:10;;;;;;;;;8.00;8.00;;;;;21.57;39.64;102262.97;5016003;28;45298;-56
2021/10/14 03:39:35;;;;;;;;;10.50;9.00;;;;;21.57;39.65;102262.97;5017246;28;45432;-56
2021/10/14 03:42:01;;;;;;;;;10.50;10.00;;;;;21.57;39.19;102265.59;5017845;28;45309;-57
2021/10/14 03:44:26;;;;;;;;;8.00;8.00;;;;;21.57;39.30;102273.50;5015686;28;48094;-56
2021/10/14 03:46:51;;;;;;;;;7.25;7.25;;;;;21.54;39.39;102268.38;4998787;28;45195;-55
2021/10/14 03:49:17;;;;;;;;;9.75;8.50;;;;;21.56;39.37;102271.78;5017168;28;45239;-55
2021/10/14 03:51:42;;;;;;;;;8.75;8.75;;;;;21.56;39.21;102271.78;5017354;28;45392;-55
2021/10/14 03:54:09;;;;;;;;;9.75;8.25;;;;;21.55;39.25;102269.22;5016966;28;45414;-55
2021/10/14 03:56:34;;;;;;;;;7.25;7.25;;;;;21.55;39.69;102264.78;5017297;28;45706;-56
2021/10/14 03:58:59;;;;;;;;;9.75;9.75;;;;;21.52;39.67;102264.94;5016756;28;46845;-54
2021/10/14 04:01:25;;;;;;;;;10.00;10.00;;;;;21.54;39.19;102278.06;4999464;28;45314;-56
2021/10/14 04:03:50;;;;;;;;;9.25;7.50;;;;;21.53;39.46;102274.56;5016448;28;45464;-55
2021/10/14 04:06:15;;;;;;;;;8.75;7.50;;;;;21.53;39.39;102265.78;5032155;28;45274;-56
2021/10/14 04:08:41;;;;;;;;;8.00;6.50;;;;;21.53;39.58;102265.78;5017027;28;45267;-56
2021/10/14 04:11:06;;;;;;;;;8.25;6.50;;;;;21.54;39.49;102271.00;5017142;28;45313;-54
2021/10/14 04:13:31;;;;;;;;;8.75;8.25;;;;;21.53;39.50;102269.28;5016803;28;46438;-54
2021/10/14 04:15:57;;;;;;;;;14.75;10.50;;;;;21.51;39.23;102273.75;5016715;28;45282;-56
2021/10/14 04:18:22;;;;;;;;;12.00;10.00;;;;;21.52;39.31;102275.47;5016767;28;45346;-57
2021/10/14 04:20:47;;;;;;;;;8.00;7.25;;;;;21.51;39.45;102268.47;5032397;28;45633;-56
2021/10/14 04:23:15;;;;;;;;;9.50;8.00;;;;;21.50;39.37;102268.56;5016503;28;45344;-55
2021/10/14 04:25:40;;;;;;;;;7.50;7.50;;;;;21.51;39.22;102272.88;5016685;28;45696;-55
2021/10/14 04:28:05;;;;;;;;;10.50;10.50;;;;;21.51;39.45;102273.75;5016987;28;45421;-56
2021/10/14 04:30:33;;;;;;;;;9.75;9.75;;;;;21.50;39.78;102279.94;5016641;28;45302;-56
2021/10/14 04:32:58;;;;;;;;;9.25;7.50;;;;;21.50;39.41;102277.31;5016420;28;46472;-56
2021/10/14 04:35:23;;;;;;;;;10.50;10.00;;;;;21.51;39.29;102283.44;5016450;28;45250;-55
2021/10/14 04:37:49;;;;;;;;;8.75;8.75;;;;;21.51;39.49;102276.41;5016515;28;45207;-56
2021/10/14 04:40:14;;;;;;;;;9.25;9.00;;;;;21.49;39.53;102280.84;5016794;28;45511;-54
2021/10/14 04:42:40;;;;;;;;;9.75;9.75;;;;;21.48;39.50;102279.13;5016323;28;45286;-55
2021/10/14 04:45:06;;;;;;;;;8.75;8.25;;;;;21.48;39.27;102273.84;5016472;28;45362;-55
2021/10/14 04:47:31;;;;;;;;;8.75;8.25;;;;;21.49;39.67;102278.22;5016383;28;45305;-56
2021/10/14 04:49:57;;;;;;;;;8.75;8.50;;;;;21.47;39.44;102278.28;5016455;28;45311;-54
2021/10/14 04:52:22;;;;;;;;;10.25;10.25;;;;;21.47;39.50;102278.28;5016050;28;45614;-55
2021/10/14 04:54:47;;;;;;;;;8.00;8.00;;;;;21.48;39.54;102284.41;5016305;28;45343;-56
2021/10/14 04:57:13;;;;;;;;;14.25;11.75;;;;;21.48;39.79;102279.13;5016185;28;45603;-57
2021/10/14 04:59:38;;;;;;;;;7.50;7.50;;;;;21.49;39.55;102283.50;5018384;28;45624;-56
2021/10/14 05:02:03;;;;;;;;;9.75;8.00;;;;;21.51;39.81;102279.03;5019982;28;46453;-56
2021/10/14 05:04:29;;;;;;;;;9.50;9.00;;;;;21.53;39.48;102279.84;5019478;28;45460;-55
2021/10/14 05:06:55;;;;;;;;;8.25;8.25;;;;;21.52;39.93;102277.25;5019812;28;45445;-55
2021/10/14 05:09:20;;;;;;;;;10.00;10.00;;;;;21.52;39.45;102278.13;5035193;28;45572;-53
2021/10/14 05:11:45;;;;;;;;;6.75;6.75;;;;;21.52;39.85;102274.59;5019222;28;50343;-55
2021/10/14 05:14:10;;;;;;;;;8.25;8.25;;;;;21.53;39.72;102276.31;5019499;28;45334;-54
2021/10/14 05:16:36;;;;;;;;;9.00;8.25;;;;;21.53;40.18;102282.47;5019721;28;48633;-55
2021/10/14 05:19:02;;;;;;;;;10.75;8.50;;;;;21.55;39.26;102280.63;5019781;28;45620;-57
2021/10/14 05:21:28;;;;;;;;;10.75;9.50;;;;;21.58;39.65;102285.78;5019314;28;45314;-56
2021/10/14 05:23:58;;;;;;;;;11.75;8.00;;;;;21.61;40.01;102277.81;5019407;28;45346;-54
2021/10/14 05:26:24;;;;;;;;;12.00;9.00;;;;;21.65;39.91;102285.63;5001607;28;45445;-56
2021/10/14 05:28:49;;;;;;;;;10.00;8.25;;;;;21.70;40.04;102295.09;5019502;28;45763;-56
2021/10/14 05:31:14;;;;;;;;;9.50;8.00;;;;;21.74;39.83;102293.19;5019199;28;51563;-55
2021/10/14 05:33:40;;;;;;;;;13.25;10.00;;;;;21.78;39.34;102286.84;5019410;28;45719;-54
2021/10/14 05:36:05;;;;;;;;;7.00;7.00;;;;;21.80;39.41;102294.72;5019770;28;45878;-55
2021/10/14 05:38:31;;;;;;;;;10.50;9.50;;;;;21.82;39.54;102293.75;5019552;28;45752;-56
2021/10/14 05:40:56;;;;;;;;;8.75;8.75;;;;;21.85;39.68;102290.13;5018868;28;50170;-53
2021/10/14 05:43:21;;;;;;;;;8.00;7.50;;;;;21.86;39.56;102289.22;5019111;28;45342;-56
2021/10/14 05:45:47;;;;;;;;;9.25;8.75;;;;;21.89;39.87;102292.59;5001643;28;45276;-52
2021/10/14 05:48:12;;;;;;;;;9.50;8.50;;;;;21.91;39.45;102292.56;5001479;28;45451;-56
2021/10/14 05:50:37;;;;;;;;;8.75;8.75;;;;;21.91;39.26;102284.63;5019288;28;47279;-56
2021/10/14 05:53:03;;;;;;;;;8.00;8.00;;;;;21.93;39.63;102286.28;5019025;28;45231;-56
2021/10/14 05:55:28;;;;;;;;;9.00;7.00;;;;;21.93;39.73;102288.91;5019319;28;45284;-55
2021/10/14 05:57:53;;;;;;;;;8.50;8.50;;;;;21.97;39.52;102288.81;5019271;28;45536;-54
2021/10/14 06:00:19;;;;;;;;;9.50;9.50;;;;;21.98;39.48;102282.63;5019012;28;45408;-56
2021/10/14 06:02:44;;;;;;;;;8.25;8.25;;;;;21.99;39.30;102282.53;5001023;28;45939;-56
2021/10/14 06:05:09;;;;;;;;;10.25;5.00;;;;;21.99;39.23;102285.19;5019495;28;45236;-56
2021/10/14 06:07:35;;;;;;;;;12.50;10.00;;;;;22.00;39.36;102280.75;5001484;28;45365;-55
2021/10/14 06:10:00;;;;;;;;;8.50;8.00;;;;;22.02;39.72;102284.19;5018282;28;46284;-56
2021/10/14 06:12:25;;;;;;;;;8.50;7.50;;;;;22.01;39.54;102282.47;5018686;28;45333;-55
2021/10/14 06:14:51;;;;;;;;;9.50;9.50;;;;;22.03;39.53;102275.38;5018929;28;45311;-54
2021/10/14 06:17:16;;;;;;;;;11.75;9.50;;;;;22.02;39.42;102278.91;5001189;28;45592;-55
2021/10/14 06:19:41;;;;;;;;;9.00;9.00;;;;;22.01;39.31;102280.72;5018853;28;46551;-53
2021/10/14 06:22:07;;;;;;;;;8.25;8.25;;;;;22.01;39.46;102282.47;5018686;28;45517;-55
2021/10/14 06:24:32;;;;;;;;;9.00;8.00;;;;;22.01;39.31;102278.06;5018822;28;45361;-52
2021/10/14 06:26:57;;;;;;;;;8.50;8.50;;;;;22.01;39.50;102278.06;5018860;28;45397;-49
2021/10/14 06:29:23;;;;;;;;;5.25;5.25;;;;;22.00;39.19;102278.13;5018408;28;45541;-53
2021/10/14 06:31:48;;;;;;;;;9.00;9.00;;;;;22.01;39.79;102285.13;5018488;28;45321;-56
2021/10/14 06:34:13;;;;;;;;;7.75;7.75;;;;;22.01;39.40;102275.44;5018567;28;45425;-54
2021/10/14 06:36:39;;;;;;;;;12.00;9.25;;;;;22.01;39.55;102279.84;5019042;28;45389;-57
2021/10/14 06:39:04;;;;;;;;;7.00;7.00;;;;;22.00;39.44;102280.75;5018281;28;45481;-56
2021/10/14 06:41:30;;;;;;;;;7.00;7.00;;;;;22.00;39.54;102283.38;5018460;28;45433;-56
2021/10/14 06:43:55;;;;;;;;;8.00;8.00;;;;;22.00;39.49;102283.38;5018260;28;45331;-57
2021/10/14 06:46:21;;;;;;;;;10.50;8.00;;;;;21.98;39.30;102282.63;5033883;28;45509;-56
2021/10/14 06:48:46;;;;;;;;;9.00;6.50;;;;;21.98;39.75;102279.97;5018143;28;45596;-55
2021/10/14 06:51:11;;;;;;;;;8.75;8.00;;;;;21.98;39.56;102282.63;5018422;28;45278;-54
2021/10/14 06:53:37;;;;;;;;;10.25;9.50;;;;;21.96;39.66;102282.66;5018301;28;45342;-54
2021/10/14 06:56:02;;;;;;;;;5.75;5.50;;;;;21.97;39.63;102286.16;5018192;28;45540;-54
2021/10/14 06:58:28;;;;;;;;;10.00;8.00;;;;;21.96;39.47;102285.28;5000120;28;47092;-56
2021/10/14 07:00:53;;;;;;;;;6.50;6.50;;;;;21.96;39.60;102279.16;5018211;28;45338;-57
2021/10/14 07:03:18;;;;;;;;;11.00;7.00;;;;;21.97;39.62;102283.53;5017924;28;45434;-57
2021/10/14 07:05:44;;;;;;;;;8.25;8.25;;;;;21.97;39.27;102280.91;5018636;28;45316;-57
2021/10/14 07:08:09;;;;;;;;;9.00;9.00;;;;;21.96;39.19;102281.81;5017808;28;46368;-57
2021/10/14 07:10:34;;;;;;;;;8.75;8.25;;;;;21.97;39.43;102280.91;5017275;28;58336;-56
2021/10/14 07:13:05;;;;;;;;;7.50;7.50;;;;;21.97;39.69;102280.91;5017958;28;45187;-56
2021/10/14 07:15:31;;;;;;;;;8.25;7.00;;;;;21.95;39.44;102280.94;5017999;28;45447;-56
2021/10/14 07:17:57;;;;;;;;;9.25;8.00;;;;;21.95;39.43;102275.66;5017577;28;46210;-56
2021/10/14 07:20:22;;;;;;;;;10.00;9.75;;;;;21.95;39.58;102274.81;5017739;28;45337;-55
2021/10/14 07:22:47;;;;;;;;;12.00;12.00;;;;;21.96;39.49;102279.16;5016832;28;45278;-56
2021/10/14 07:25:13;;;;;;;;;19.75;14.50;;;;;21.93;39.01;102281.00;5018177;28;45571;-56
2021/10/14 07:27:38;;;;;;;;;20.75;17.25;;;;;21.90;38.14;102275.84;5017660;28;46337;-56
2021/10/14 07:30:05;;;;;;;;;19.00;18.50;;;;;21.86;38.34;102271.59;5017457;28;45266;-55
2021/10/14 07:32:31;;;;;;;;;17.75;15.25;;;;;21.82;37.82;102270.00;5017636;28;45361;-57
2021/10/14 07:34:56;;;;;;;;;17.25;17.25;;;;;21.81;38.01;102273.56;5017782;28;45634;-57
2021/10/14 07:37:21;;;;;;;;;19.25;18.25;;;;;21.78;37.84;102274.53;5016115;28;46028;-58
2021/10/14 07:39:47;;;;;;;;;25.25;19.75;;;;;21.76;37.80;102272.88;5017367;28;45371;-57
2021/10/14 07:42:13;;;;;;;;;23.50;19.75;;;;;21.75;37.39;102285.19;5017716;28;45536;-55
2021/10/14 07:44:39;;;;;;;;;21.00;19.00;;;;;21.72;37.38;102274.75;5017526;28;45647;-58
2021/10/14 07:47:05;;;;;;;;;20.50;17.50;;;;;21.71;37.61;102274.81;5017168;28;47135;-56
2021/10/14 07:49:30;;;;;;;;;21.25;20.25;;;;;21.71;37.12;102274.81;5017161;28;45289;-57
2021/10/14 07:51:56;;;;;;;;;19.25;17.25;;;;;21.70;37.19;102273.09;5017289;28;45287;-56
2021/10/14 07:54:22;;;;;;;;;15.75;15.50;;;;;21.67;37.18;102276.72;5017453;28;45625;-55
2021/10/14 07:56:47;;;;;;;;;16.25;14.75;;;;;21.67;37.18;102267.91;5017056;28;47041;-49
2021/10/14 07:59:13;;;;;;;;;21.00;17.75;;;;;21.62;36.81;102273.38;4999619;28;45257;-56
2021/10/14 08:01:38;;;;;;;;;22.25;19.75;;;;;21.54;36.68;102263.09;5017266;28;45306;-57
2021/10/14 08:04:03;;;;;;;;;17.00;15.50;;;;;21.49;36.79;102275.59;5017166;28;45618;-55
2021/10/14 08:06:29;;;;;;;;;20.75;16.25;;;;;21.45;36.89;102274.84;5016855;28;46096;-56
2021/10/14 08:08:54;;;;;;;;;13.75;11.50;;;;;21.45;37.11;102279.25;5016987;28;45255;-57
2021/10/14 08:11:20;;;;;;;;;17.75;15.75;;;;;21.44;37.13;102278.38;5016925;28;45334;-55
2021/10/14 08:13:46;;;;;;;;;16.25;15.00;;;;;21.48;37.39;102281.78;5017525;28;45623;-54
2021/10/14 08:16:11;;;;;;;;;19.75;16.00;;;;;21.48;37.39;102281.78;4999127;28;45366;-57
2021/10/14 08:18:37;;;;;;;;;16.50;15.00;;;;;21.49;37.58;102280.84;5016774;28;45300;-53
2021/10/14 08:21:03;;;;;;;;;17.50;14.50;;;;;21.49;37.32;102275.59;5016893;28;45270;-56
2021/10/14 08:23:28;;;;;;;;;14.25;13.50;;;;;21.50;37.45;102277.31;5017084;28;45728;-57
2021/10/14 08:25:55;;;;;;;;;14.50;11.50;;;;;21.51;37.90;102276.41;5016651;28;46193;-56
2021/10/14 08:28:23;;;;;;;;;16.50;12.50;;;;;21.53;37.41;102276.31;5016704;28;45345;-57
2021/10/14 08:30:49;;;;;;;;;14.25;13.25;;;;;21.53;37.49;102277.22;5017039;28;45353;-55
2021/10/14 08:33:15;;;;;;;;;18.00;13.00;;;;;21.53;37.67;102274.56;5017190;28;45181;-52
2021/10/14 08:35:41;;;;;;;;;16.75;15.00;;;;;21.54;37.60;102263.09;5015561;28;46077;-55
2021/10/14 08:38:09;;;;;;;;;14.50;14.50;;;;;21.55;37.19;102264.78;5016503;28;45381;-57
2021/10/14 08:40:35;;;;;;;;;18.00;13.25;;;;;21.57;37.74;102273.50;5016771;28;45784;-57
2021/10/14 08:43:05;;;;;;;;;12.50;10.50;;;;;21.57;37.77;102268.25;5016780;28;45300;-57
2021/10/14 08:45:33;;;;;;;;;13.50;13.25;;;;;21.59;37.64;102265.59;5016329;28;45596;-57
2021/10/14 08:48:01;;;;;;;;;15.25;13.00;;;;;21.57;37.71;102265.59;5016425;28;45836;-57
2021/10/14 08:50:26;;;;;;;;;12.00;10.75;;;;;21.58;37.85;102269.97;5016433;28;45288;-54
2021/10/14 08:52:51;;;;;;;;;17.00;15.50;;;;;21.57;37.38;102257.69;5016553;28;45564;-57
2021/10/14 08:55:17;;;;;;;;;13.75;13.50;;;;;21.61;37.47;102269.00;5016664;28;45615;-57
2021/10/14 08:57:42;;;;;;;;;19.25;14.00;;;;;21.59;37.59;102260.31;5016301;28;45334;-53
2021/10/14 09:00:08;;;;;;;;;12.50;11.75;;;;;21.60;37.67;102262.88;5016092;28;51134;-56
2021/10/14 09:02:33;;;;;;;;;12.75;11.00;;;;;21.61;37.83;102269.88;4998725;28;45499;-54
2021/10/14 09:05:03;;;;;;;;;11.75;9.50;;;;;21.62;37.46;102266.34;5016163;28;46548;-54
2021/10/14 09:07:31;;;;;;;;;12.75;11.00;;;;;21.61;37.21;102259.34;5016261;28;45274;-52
2021/10/14 09:10:03;;;;;;;;;13.25;12.00;;;;;21.61;37.56;102255.81;5016368;28;45388;-50
2021/10/14 09:12:34;;;;;;;;;13.50;12.00;;;;;21.61;37.76;102259.34;5016578;28;45568;-50
2021/10/14 09:15:11;;;;;;;;;11.00;10.00;;;;;21.61;37.31;102248.78;5016049;28;46184;-53
2021/10/14 09:17:36;;;;;;;;;11.75;11.00;;;;;21.62;37.51;102255.78;5031391;28;45351;-55
2021/10/14 09:20:29;;;;;;;;;8.33;8.33;;;;;21.63;37.52;102251.34;5016108;28;45485;-52
2021/10/14 09:23:07;;;;;;;;;11.75;11.00;;;;;21.64;37.49;102252.22;5016234;28;45397;-53
2021/10/14 09:25:43;;;;;;;;;9.00;9.00;;;;;21.62;37.33;102253.16;5014990;28;45474;-57
2021/10/14 09:28:13;;;;;;;;;11.00;9.50;;;;;21.62;37.84;102258.41;5015950;28;45436;-55
2021/10/14 09:30:43;;;;;;;;;10.00;8.00;;;;;21.62;37.65;102245.22;5015692;28;45342;-55
2021/10/14 09:33:30;;;;;;;;;14.75;11.00;;;;;21.62;37.68;102253.16;5016102;28;45434;-57
2021/10/14 09:36:25;;;;;;;;;8.75;7.50;;;;;21.62;37.55;102245.22;5015860;28;46355;-53
2021/10/14 09:38:57;;;;;;;;;9.75;9.75;;;;;21.62;37.23;102239.94;5016031;28;45842;-57
2021/10/14 09:41:24;;;;;;;;;12.50;8.00;;;;;21.64;37.90;102244.31;5016089;28;45424;-50
2021/10/14 09:43:54;;;;;;;;;7.50;7.25;;;;;21.62;37.66;102239.94;4998575;28;45532;-52
2021/10/14 09:46:37;;;;;;;;;9.00;8.25;;;;;21.62;37.70;102239.94;5001126;28;48403;-53
2021/10/14 09:49:04;;;;;;;;;10.00;8.00;;;;;21.61;37.14;102240.88;5019154;28;45258;-54
2021/10/14 09:51:30;;;;;;;;;11.50;8.00;;;;;21.60;37.32;102236.50;5019151;28;45245;-57
2021/10/14 09:53:58;;;;;;;;;8.00;8.00;;;;;21.61;37.26;102232.94;5019469;28;45369;-56
2021/10/14 09:56:25;;;;;;;;;8.00;7.25;;;;;21.61;37.06;102226.81;5001277;28;47357;-52
2021/10/14 09:58:50;;;;;;;;;9.50;7.00;;;;;21.60;37.27;102217.19;5019401;28;45416;-57
2021/10/14 10:01:16;;;;;;;;;9.25;7.50;;;;;21.62;37.31;102233.78;5019210;28;45285;-54
2021/10/14 10:03:41;;;;;;;;;7.00;5.50;;;;;21.61;37.25;102221.53;5019001;28;45184;-57
2021/10/14 10:06:07;;;;;;;;;8.50;7.00;;;;;21.61;37.40;102225.03;5018812;28;46650;-57
2021/10/14 10:08:40;;;;;;;;;6.50;6.50;;;;;21.62;37.63;102218.84;5001106;28;46465;-56
2021/10/14 10:11:10;;;;;;;;;5.25;5.25;;;;;21.61;37.27;102217.13;5019009;28;45303;-55
2021/10/14 10:13:39;;;;;;;;;7.75;6.75;;;;;21.61;37.46;102209.22;5019242;28;45459;-57
2021/10/14 10:16:14;;;;;;;;;6.25;6.25;;;;;21.62;37.46;102207.41;5017403;28;47454;-57
2021/10/14 10:18:41;;;;;;;;;6.00;5.25;;;;;21.62;37.65;102210.94;5018654;28;45922;-57
2021/10/14 10:21:09;;;;;;;;;7.75;5.50;;;;;21.62;37.52;102202.13;5018678;28;45379;-59
2021/10/14 10:23:49;;;;;;;;;8.75;7.00;;;;;21.64;37.55;102202.09;5018774;28;45511;-56
2021/10/14 10:26:32;;;;;;;;;8.25;7.25;;;;;21.64;36.57;102199.47;5018603;28;46524;-57
2021/10/14 10:28:58;;;;;;;;;5.25;5.25;;;;;21.60;36.47;102194.28;5018481;28;45438;-57
2021/10/14 10:31:23;;;;;;;;;5.50;4.50;;;;;21.57;36.07;102199.66;5018937;28;45423;-55
2021/10/14 10:33:58;;;;;;;;;3.75;3.75;;;;;21.52;36.13;102201.63;5018782;28;45463;-55
2021/10/14 10:36:46;;;;;;;;;3.75;3.00;;;;;21.44;35.70;102186.06;5018675;28;47411;-57
2021/10/14 10:39:45;;;;;;;;;4.00;4.00;;;;;21.39;35.45;102187.16;5018325;28;45774;-58
2021/10/14 10:42:38;;;;;;;;;4.50;4.50;;;;;21.31;35.46;102177.78;5018401;28;45341;-57
2021/10/14 10:45:17;;;;;;;;;6.00;5.00;;;;;21.30;35.31;102189.25;5004610;28;45184;-54
2021/10/14 10:47:54;;;;;;;;;6.00;4.00;;;;;21.27;35.39;102178.78;5018228;28;46410;-55
2021/10/14 10:50:25;;;;;;;;;4.00;4.00;;;;;21.27;35.61;102175.31;5017632;28;45790;-55
2021/10/14 10:53:19;;;;;;;;;5.00;4.00;;;;;21.27;35.11;102176.16;5018503;28;45413;-55
2021/10/14 10:55:50;;;;;;;;;5.75;2.25;;;;;21.25;35.26;102172.72;5017769;28;45602;-57
2021/10/14 10:58:44;;;;;;;;;4.75;4.00;;;;;21.20;35.15;102166.75;5017487;28;45397;-54
2021/10/14 11:01:10;;;;;;;;;4.25;4.25;;;;;21.22;35.78;102169.34;5018006;28;45368;-57
2021/10/14 11:03:36;;;;;;;;;6.75;5.50;;;;;21.20;35.35;102161.50;5016686;28;45386;-55
2021/10/14 11:06:08;;;;;;;;;6.75;5.00;;;;;21.20;35.25;102164.13;5018288;28;45424;-55
2021/10/14 11:08:35;;;;;;;;;5.00;4.00;;;;;21.20;35.78;102164.13;5017979;28;46301;-56
2021/10/14 11:11:03;;;;;;;;;7.00;6.50;;;;;21.21;35.40;102164.97;5017717;28;45226;-55
2021/10/14 11:13:32;;;;;;;;;8.00;5.50;;;;;21.20;35.73;102153.59;5000125;28;45352;-55
2021/10/14 11:15:58;;;;;;;;;7.25;5.50;;;;;21.20;35.08;102155.34;5018106;28;45317;-57
2021/10/14 11:18:27;;;;;;;;;7.25;6.00;;;;;21.19;35.53;102151.88;5018030;28;45332;-55